Terminal Aerodrome Forecast
Issued by NWS

Home | Current Version | Previous Version | Text Only | Print | Product List | Glossary On
Versions: 1 2 3 4 5 6 7 8 9 10 11 12 13
000
FTUS42 TJSJ 061100
TAFIST
TAF
TIST 061136Z 0612/0712 09013KT P6SM VCSH SCT025 SCT050
     FM061300 11018G29KT P6SM FEW025
     FM062300 08012KT P6SM VCSH FEW025 SCT040
      AMD NOT SKED=

USA.gov is the U.S. government's official web portal to all federal, state and local government web resources and services.